TimePDT,TemperatureF,Dew PointF,Humidity,Sea Level PressureIn,VisibilityMPH,Wind Direction,Wind SpeedMPH,Gust SpeedMPH,PrecipitationIn,Events,Conditions,WindDirDegrees,DateUTC
12:53 AM,46.9,46.0,97,30.27,0.2,Calm,Calm,-,N/A,Fog,Fog,0,2013-10-18 07:53:00
1:53 AM,46.0,45.0,96,30.29,0.2,Calm,Calm,-,N/A,Fog,Fog,0,2013-10-18 08:53:00
2:53 AM,46.0,44.1,93,30.29,0.2,Calm,Calm,-,N/A,Fog,Fog,0,2013-10-18 09:53:00
3:24 AM,44.6,44.6,100,30.26,0.2,Calm,Calm,-,0.01,Fog,Fog,0,2013-10-18 10:24:00
3:53 AM,44.1,43.0,96,30.29,0.2,NNE,3.5,-,0.01,Fog,Fog,20,2013-10-18 10:53:00
4:53 AM,43.0,42.1,97,30.28,0.2,NNW,3.5,-,N/A,Fog,Fog,340,2013-10-18 11:53:00
5:53 AM,43.0,42.1,97,30.28,0.2,North,3.5,-,N/A,Fog,Fog,350,2013-10-18 12:53:00
6:53 AM,42.1,41.0,96,30.27,0.2,NNW,3.5,-,N/A,Fog,Fog,340,2013-10-18 13:53:00
7:53 AM,42.1,41.0,96,30.28,0.2,NNE,4.6,-,N/A,Fog,Fog,20,2013-10-18 14:53:00
8:53 AM,42.1,41.0,96,30.29,0.2,Calm,Calm,-,N/A,Fog,Fog,0,2013-10-18 15:53:00
9:12 AM,42.8,41.0,93,30.26,0.2,North,3.5,-,N/A,Fog,Fog,350,2013-10-18 16:12:00
9:40 AM,42.8,41.0,93,30.26,1.0,NNE,3.5,-,N/A,Fog,Fog,30,2013-10-18 16:40:00
9:53 AM,43.0,42.1,97,30.28,0.2,Calm,Calm,-,N/A,Fog,Fog,0,2013-10-18 16:53:00
10:10 AM,42.8,42.8,100,30.26,1.0,Calm,Calm,-,N/A,,Mist,0,2013-10-18 17:10:00
10:18 AM,44.6,44.6,100,30.26,0.8,WNW,3.5,-,N/A,,Mist,300,2013-10-18 17:18:00
10:42 AM,44.6,42.8,93,30.26,3.0,NW,3.5,-,N/A,,Mostly Cloudy,310,2013-10-18 17:42:00
10:53 AM,46.0,45.0,96,30.29,3.0,NW,3.5,-,N/A,,Mostly Cloudy,310,2013-10-18 17:53:00
11:34 AM,48.2,44.6,87,30.25,4.0,Calm,Calm,-,N/A,,Scattered Clouds,0,2013-10-18 18:34:00
11:53 AM,51.1,45.0,80,30.27,10.0,Calm,Calm,-,N/A,,Partly Cloudy,0,2013-10-18 18:53:00
12:53 PM,55.9,45.0,67,30.26,10.0,Calm,Calm,-,N/A,,Clear,0,2013-10-18 19:53:00
1:53 PM,57.9,46.9,67,30.25,10.0,North,4.6,-,N/A,,Clear,360,2013-10-18 20:53:00
2:53 PM,55.9,48.0,75,30.23,10.0,WNW,6.9,-,N/A,,Clear,300,2013-10-18 21:53:00
3:53 PM,55.0,48.0,77,30.21,10.0,West,5.8,-,N/A,,Clear,280,2013-10-18 22:53:00
4:53 PM,51.1,46.0,83,30.20,8.0,West,4.6,-,N/A,,Clear,280,2013-10-18 23:53:00
5:17 PM,48.2,46.4,93,30.17,2.0,West,3.5,-,N/A,,Mostly Cloudy,270,2013-10-19 00:17:00
5:53 PM,46.9,46.0,97,30.20,0.8,WNW,4.6,-,N/A,,Overcast,300,2013-10-19 00:53:00
5:57 PM,46.4,44.6,93,30.17,0.2,WNW,3.5,-,N/A,Fog,Fog,290,2013-10-19 00:57:00
6:04 PM,46.4,46.4,100,30.17,0.2,Calm,Calm,-,N/A,Fog,Fog,0,2013-10-19 01:04:00
6:53 PM,46.9,46.0,97,30.19,0.2,Calm,Calm,-,N/A,Fog,Fog,0,2013-10-19 01:53:00
7:53 PM,46.0,46.0,100,30.19,0.2,Calm,Calm,-,N/A,Fog,Fog,0,2013-10-19 02:53:00
8:53 PM,46.0,45.0,96,30.20,0.2,Calm,Calm,-,N/A,Fog,Fog,0,2013-10-19 03:53:00
9:53 PM,44.1,43.0,96,30.20,0.2,Calm,Calm,-,N/A,Fog,Fog,0,2013-10-19 04:53:00
10:53 PM,43.0,42.1,97,30.21,0.2,Calm,Calm,-,N/A,Fog,Fog,0,2013-10-19 05:53:00
11:53 PM,43.0,43.0,100,30.20,0.2,Calm,Calm,-,N/A,Fog,Fog,0,2013-10-19 06:53:00